Time;durP1;ratioP1;P1;durP2;ratioP2;P2;SDS_P1;SDS_P2;PMS_P1;PMS_P2;Temp;Humidity;BMP_temperature;BMP_pressure;BME280_temperature;BME280_humidity;BME280_pressure;Samples;Min_cycle;Max_cycle;Signal;HPM_P1;HPM_P2
2022/05/15 05:25:04;;;;;;;;;;;;;;;23.63;91.73;98633.72;5173287;23;19971;-71
2022/05/15 05:27:31;;;;;;;;;;;;;;;23.68;89.52;98642.44;4866175;29;20251;-71
2022/05/15 05:29:58;;;;;;;;;;;;;;;23.55;87.65;98644.66;4865732;29;19952;-71
2022/05/15 05:32:25;;;;;;;;;;;;;;;23.56;88.52;98639.75;4865746;29;19951;-71
2022/05/15 05:34:52;;;;;;;;;;;;;;;23.22;89.75;98640.84;4866681;29;19952;-71
2022/05/15 05:37:20;;;;;;;;;;;;;;;22.96;92.08;98634.66;4866562;29;20330;-71
2022/05/15 05:39:47;;;;;;;;;;;;;;;22.80;92.86;98644.28;4866719;29;19947;-71
2022/05/15 05:42:14;;;;;;;;;;;;;;;22.63;99.04;98642.97;4861872;29;19956;-71
2022/05/15 05:44:42;;;;;;;;;;;;;;;22.65;98.77;98643.28;4863293;29;20334;-71
2022/05/15 05:47:09;;;;;;;;;;;;;;;22.50;97.54;98645.09;4866020;29;19978;-71
2022/05/15 05:49:36;;;;;;;;;;;;;;;22.41;95.84;98647.91;4865533;29;20358;-72
2022/05/15 05:52:04;;;;;;;;;;;;;;;22.42;97.48;98646.66;4864689;29;19959;-71
2022/05/15 05:54:31;;;;;;;;;;;;;;;22.23;99.72;98648.63;4856757;29;19951;-71
2022/05/15 05:56:58;;;;;;;;;;;;;;;22.13;100.00;98654.78;4855476;29;19958;-72
2022/05/15 05:59:26;;;;;;;;;;;;;;;22.03;100.00;98648.22;4864936;29;19982;-72
2022/05/15 06:01:53;;;;;;;;;;;;;;;21.98;100.00;98643.13;4862032;29;19952;-72
2022/05/15 06:07:06;;;;;;;;;;;;;;;22.00;100.00;98652.00;4864714;29;19968;-71
2022/05/15 06:09:35;;;;;;;;;;;;;;;22.09;100.00;98654.91;4861959;29;19963;-71
2022/05/15 06:12:05;;;;;;;;;;;;;;;22.07;100.00;98650.94;4862238;29;19959;-71
2022/05/15 06:14:33;;;;;;;;;;;;;;;22.15;100.00;98652.25;4864965;29;19958;-71
2022/05/15 06:17:00;;;;;;;;;;;;;;;22.18;100.00;98652.09;4858158;29;19957;-71
2022/05/15 06:19:30;;;;;;;;;;;;;;;22.20;100.00;98654.50;4849839;29;21451;-71
2022/05/15 06:21:58;;;;;;;;;;;;;;;22.13;100.00;98651.94;4873736;29;19955;-71
2022/05/15 06:24:27;;;;;;;;;;;;;;;22.09;100.00;98652.06;4879876;29;19999;-71
2022/05/15 06:26:58;;;;;;;;;;;;;;;22.01;100.00;98656.44;4865753;29;19970;-71
2022/05/15 06:29:26;;;;;;;;;;;;;;;22.03;100.00;98655.97;4865191;29;20249;-71
2022/05/15 06:31:53;;;;;;;;;;;;;;;21.92;100.00;98652.72;4862012;29;19951;-72
2022/05/15 06:34:20;;;;;;;;;;;;;;;22.05;100.00;98665.66;4865059;29;20250;-72
2022/05/15 06:36:47;;;;;;;;;;;;;;;22.20;100.00;98660.94;4864969;29;20360;-72
2022/05/15 06:39:15;;;;;;;;;;;;;;;22.19;100.00;98661.44;4864716;29;20247;-72
2022/05/15 06:41:49;;;;;;;;;;;;;;;22.15;100.00;98664.41;4863878;29;19956;-72
2022/05/15 06:44:27;;;;;;;;;;;;;;;22.18;100.00;98656.97;4861877;29;19951;-71
2022/05/15 06:46:56;;;;;;;;;;;;;;;22.22;100.00;98658.47;4865371;29;19975;-72
2022/05/15 06:49:23;;;;;;;;;;;;;;;22.34;100.00;98664.50;4864638;29;19958;-71
2022/05/15 06:51:51;;;;;;;;;;;;;;;22.37;100.00;98657.88;4856130;29;20244;-71
2022/05/15 06:54:18;;;;;;;;;;;;;;;22.43;100.00;98656.00;4861397;29;19961;-71
2022/05/15 06:59:32;;;;;;;;;;;;;;;22.58;100.00;98663.50;4864684;29;19967;-71
2022/05/15 07:01:59;;;;;;;;;;;;;;;22.82;100.00;98660.91;4864958;29;20331;-71
2022/05/15 07:04:26;;;;;;;;;;;;;;;22.85;100.00;98651.41;4864381;29;19951;-71
2022/05/15 07:06:54;;;;;;;;;;;;;;;22.93;100.00;98661.25;4864602;29;19988;-71
2022/05/15 07:09:21;;;;;;;;;;;;;;;22.94;100.00;98656.34;4864814;29;19949;-71
2022/05/15 07:11:48;;;;;;;;;;;;;;;22.97;100.00;98650.47;4864717;29;19978;-71
2022/05/15 07:14:18;;;;;;;;;;;;;;;23.16;100.00;98657.78;4864732;29;20251;-71
2022/05/15 07:16:45;;;;;;;;;;;;;;;23.13;100.00;98655.09;4865425;29;19955;-71
2022/05/15 07:19:12;;;;;;;;;;;;;;;23.19;100.00;98661.75;4847905;29;19960;-71
2022/05/15 07:21:40;;;;;;;;;;;;;;;23.08;100.00;98655.72;4864093;29;19959;-71
2022/05/15 07:24:07;;;;;;;;;;;;;;;23.11;100.00;98654.78;4864187;29;20263;-71
2022/05/15 07:26:34;;;;;;;;;;;;;;;22.99;100.00;98652.84;4848690;29;19956;-71
2022/05/15 07:29:02;;;;;;;;;;;;;;;22.98;100.00;98654.94;4864532;29;20034;-71
2022/05/15 07:31:29;;;;;;;;;;;;;;;23.07;100.00;98659.84;4864238;29;19958;-71
2022/05/15 07:33:56;;;;;;;;;;;;;;;23.16;100.00;98656.97;4865295;29;19949;-71
2022/05/15 07:36:23;;;;;;;;;;;;;;;23.22;100.00;98655.91;4864193;29;20275;-72
2022/05/15 07:38:51;;;;;;;;;;;;;;;23.28;100.00;98656.06;4863599;29;19960;-72
2022/05/15 07:41:18;;;;;;;;;;;;;;;23.43;100.00;98657.03;4848644;29;19953;-72
2022/05/15 07:43:45;;;;;;;;;;;;;;;23.51;100.00;98655.44;4851725;29;19957;-72
2022/05/15 07:46:12;;;;;;;;;;;;;;;23.59;100.00;98658.78;4846084;29;19954;-72
2022/05/15 07:48:40;;;;;;;;;;;;;;;23.75;100.00;98659.22;4846713;29;20392;-72
2022/05/15 07:51:07;;;;;;;;;;;;;;;23.76;100.00;98662.88;4847110;29;19961;-72
2022/05/15 07:53:37;;;;;;;;;;;;;;;23.90;100.00;98657.31;4847210;29;19953;-71
2022/05/15 07:56:09;;;;;;;;;;;;;;;23.92;100.00;98645.41;4849669;29;19958;-71
2022/05/15 07:58:36;;;;;;;;;;;;;;;23.85;100.00;98654.28;4849600;29;19955;-71
2022/05/15 08:01:05;;;;;;;;;;;;;;;23.90;98.57;98647.94;4850156;29;19954;-71
2022/05/15 08:03:34;;;;;;;;;;;;;;;23.94;97.88;98643.63;4850538;29;20131;-71
2022/05/15 08:08:47;;;;;;;;;;;;;;;24.08;99.84;98643.03;4849951;29;19971;-71
2022/05/15 08:11:14;;;;;;;;;;;;;;;24.08;99.65;98643.03;4849736;29;19962;-71
2022/05/15 08:13:41;;;;;;;;;;;;;;;24.14;100.00;98643.94;4849991;29;19955;-71
2022/05/15 08:16:09;;;;;;;;;;;;;;;24.16;100.00;98647.09;4849967;29;20373;-71
2022/05/15 08:24:09;;;;;;;;;;;;;;;23.83;100.00;98651.13;4849682;29;19984;-71
2022/05/15 08:26:37;;;;;;;;;;;;;;;23.75;100.00;98655.56;4848707;29;19948;-71
2022/05/15 08:29:04;;;;;;;;;;;;;;;23.76;100.00;98657.19;4849485;29;19980;-71
2022/05/15 08:31:31;;;;;;;;;;;;;;;23.74;100.00;98651.16;4849086;29;19954;-72
2022/05/15 08:33:59;;;;;;;;;;;;;;;23.70;100.00;98651.31;4849317;29;19959;-72
2022/05/15 08:36:26;;;;;;;;;;;;;;;23.52;100.00;98642.78;4849675;29;19944;-72
2022/05/15 08:38:53;;;;;;;;;;;;;;;23.57;100.00;98649.91;4862890;29;19955;-72
2022/05/15 08:41:29;;;;;;;;;;;;;;;23.53;100.00;98650.06;4868141;29;19951;-71
2022/05/15 08:43:56;;;;;;;;;;;;;;;23.65;100.00;98648.28;4866778;29;19956;-71
2022/05/15 08:46:24;;;;;;;;;;;;;;;23.50;100.00;98646.09;4865116;29;19953;-71
2022/05/15 08:48:52;;;;;;;;;;;;;;;23.64;100.00;98653.22;4867808;29;19963;-71
2022/05/15 08:51:20;;;;;;;;;;;;;;;23.73;100.00;98653.22;4867623;29;19980;-71
2022/05/15 08:53:49;;;;;;;;;;;;;;;23.79;100.00;98653.38;4867614;29;19957;-71
2022/05/15 08:56:16;;;;;;;;;;;;;;;23.58;100.00;98652.28;4867669;29;20206;-71
2022/05/15 08:58:48;;;;;;;;;;;;;;;23.59;100.00;98653.88;4867520;29;19962;-71
2022/05/15 09:01:23;;;;;;;;;;;;;;;23.69;100.00;98648.94;4867163;29;19948;-71
2022/05/15 09:03:52;;;;;;;;;;;;;;;23.60;100.00;98655.44;4867202;29;20244;-71
2022/05/15 09:06:25;;;;;;;;;;;;;;;23.63;100.00;98657.34;4864070;29;19968;-71
2022/05/15 09:09:09;;;;;;;;;;;;;;;23.49;100.00;98652.28;4866801;29;19969;-71
2022/05/15 09:11:55;;;;;;;;;;;;;;;23.56;100.00;98656.88;4867283;29;19948;-71
2022/05/15 09:14:45;;;;;;;;;;;;;;;23.58;100.00;98655.13;4867197;29;19951;-71
2022/05/15 09:17:32;;;;;;;;;;;;;;;23.49;100.00;98658.00;4859647;29;20340;-71
2022/05/15 09:20:07;;;;;;;;;;;;;;;23.39;100.00;98653.56;4866882;29;20256;-71
2022/05/15 09:22:37;;;;;;;;;;;;;;;23.38;100.00;98651.97;4867112;29;19951;-71
2022/05/15 09:25:13;;;;;;;;;;;;;;;23.57;100.00;98653.56;4866771;29;19975;-71
2022/05/15 09:27:55;;;;;;;;;;;;;;;23.57;100.00;98653.56;4857090;29;19958;-71
2022/05/15 09:30:22;;;;;;;;;;;;;;;23.60;100.00;98648.97;4846425;29;20363;-71
2022/05/15 09:32:54;;;;;;;;;;;;;;;23.67;100.00;98646.53;4848528;29;19949;-71
2022/05/15 09:35:24;;;;;;;;;;;;;;;23.57;100.00;98645.00;4849305;29;19953;-72
2022/05/15 09:43:30;;;;;;;;;;;;;;;23.37;100.00;98644.69;4847978;29;19956;-72
2022/05/15 09:43:35;;;;;;;;;;;;;;;23.52;100.00;98643.53;4847975;29;19958;-71
2022/05/15 09:46:10;;;;;;;;;;;;;;;23.58;100.00;98637.19;4848292;29;19952;-71
2022/05/15 09:48:41;;;;;;;;;;;;;;;23.49;100.00;98640.88;4847512;29;19970;-72
2022/05/15 09:51:11;;;;;;;;;;;;;;;23.69;100.00;98641.16;4844602;29;19951;-72
2022/05/15 09:53:38;;;;;;;;;;;;;;;23.64;100.00;98646.72;4847914;29;19964;-71
2022/05/15 09:56:07;;;;;;;;;;;;;;;23.51;100.00;98639.13;4847848;29;20246;-71
2022/05/15 09:58:36;;;;;;;;;;;;;;;23.70;100.00;98641.94;4847757;29;19947;-71
2022/05/15 10:01:24;;;;;;;;;;;;;;;23.80;100.00;98638.59;4848048;29;20248;-71
2022/05/15 10:03:52;;;;;;;;;;;;;;;23.90;100.00;98639.38;4847803;29;19961;-71
2022/05/15 10:06:21;;;;;;;;;;;;;;;23.93;100.00;98632.72;4847862;29;19985;-71
2022/05/15 10:09:10;;;;;;;;;;;;;;;24.01;100.00;98637.59;4847892;29;19970;-71
2022/05/15 10:11:39;;;;;;;;;;;;;;;23.88;100.00;98636.22;4845079;29;19955;-71
2022/05/15 10:14:08;;;;;;;;;;;;;;;24.03;100.00;98640.78;4846323;29;20260;-71
2022/05/15 10:16:43;;;;;;;;;;;;;;;24.12;100.00;98637.91;4847453;29;19945;-71
2022/05/15 10:19:32;;;;;;;;;;;;;;;24.08;100.00;98634.44;4847375;29;19951;-71
2022/05/15 10:22:18;;;;;;;;;;;;;;;23.95;100.00;98639.53;4841355;29;20346;-71
2022/05/15 10:24:56;;;;;;;;;;;;;;;24.08;100.00;98628.75;4847122;29;19982;-71
2022/05/15 10:27:26;;;;;;;;;;;;;;;24.17;100.00;98636.47;4847415;29;19958;-71
2022/05/15 10:29:59;;;;;;;;;;;;;;;24.10;100.00;98629.03;4847099;29;19978;-71
2022/05/15 10:32:35;;;;;;;;;;;;;;;24.18;100.00;98623.78;4848981;29;19950;-71
2022/05/15 10:35:02;;;;;;;;;;;;;;;24.17;100.00;98617.25;4846856;29;19955;-71
2022/05/15 10:37:29;;;;;;;;;;;;;;;23.97;100.00;98619.84;4847564;29;20244;-71
2022/05/15 10:39:56;;;;;;;;;;;;;;;24.13;100.00;98618.72;4847363;29;19951;-71
2022/05/15 10:42:40;;;;;;;;;;;;;;;24.11;100.00;98622.03;4847313;29;20279;-71
2022/05/15 10:45:10;;;;;;;;;;;;;;;24.30;100.00;98619.91;4847052;29;20222;-71
2022/05/15 10:47:43;;;;;;;;;;;;;;;24.28;100.00;98621.69;4864690;29;19950;-71
2022/05/15 10:50:18;;;;;;;;;;;;;;;24.22;100.00;98621.53;4865521;29;19967;-71
2022/05/15 10:53:00;;;;;;;;;;;;;;;24.38;100.00;98621.13;4865425;29;19949;-71
2022/05/15 10:58:24;;;;;;;;;;;;;;;24.41;100.00;98613.66;4865541;29;20209;-71
2022/05/15 11:01:05;;;;;;;;;;;;;;;24.50;100.00;98596.47;4865616;29;20220;-71
2022/05/15 11:03:35;;;;;;;;;;;;;;;24.56;100.00;98603.91;4864952;29;19952;-71
2022/05/15 11:06:29;;;;;;;;;;;;;;;24.76;100.00;98604.09;4865074;29;19976;-71
2022/05/15 11:09:05;;;;;;;;;;;;;;;24.76;100.00;98601.25;4865356;29;19970;-71
2022/05/15 11:11:32;;;;;;;;;;;;;;;24.78;100.00;98595.84;4865649;29;19946;-72
2022/05/15 11:14:06;;;;;;;;;;;;;;;24.74;100.00;98597.28;4865441;29;19952;-72
2022/05/15 11:16:57;;;;;;;;;;;;;;;24.80;100.00;98590.44;4845458;29;20331;-72
2022/05/15 11:19:27;;;;;;;;;;;;;;;24.88;100.00;98595.78;4848006;29;19957;-70
2022/05/15 11:22:05;;;;;;;;;;;;;;;24.93;100.00;98595.91;4865493;29;19958;-70
2022/05/15 11:24:51;;;;;;;;;;;;;;;24.97;100.00;98604.28;4864873;29;20020;-70
2022/05/15 11:27:27;;;;;;;;;;;;;;;24.99;100.00;98593.19;4848581;29;19957;-70
2022/05/15 11:29:56;;;;;;;;;;;;;;;25.05;100.00;98594.06;4868137;29;20231;-71
2022/05/15 11:32:42;;;;;;;;;;;;;;;25.10;100.00;98596.25;4869188;29;20244;-71
2022/05/15 11:35:18;;;;;;;;;;;;;;;25.01;100.00;98594.28;4868632;29;19983;-71
2022/05/15 11:37:57;;;;;;;;;;;;;;;25.07;100.00;98591.50;4868279;29;19956;-71
2022/05/15 11:40:36;;;;;;;;;;;;;;;25.03;100.00;98591.72;4863284;29;19958;-71
2022/05/15 11:43:22;;;;;;;;;;;;;;;25.13;100.00;98583.84;4867581;29;19957;-71
2022/05/15 11:45:50;;;;;;;;;;;;;;;25.26;100.00;98579.41;4852909;29;19952;-71
2022/05/15 11:48:20;;;;;;;;;;;;;;;25.38;100.00;98581.22;4868633;29;19958;-72
2022/05/15 11:50:57;;;;;;;;;;;;;;;25.50;100.00;98584.34;4868366;29;20262;-71
2022/05/15 11:53:33;;;;;;;;;;;;;;;25.54;100.00;98577.13;4867983;29;19952;-71
2022/05/15 11:56:19;;;;;;;;;;;;;;;25.58;100.00;98576.94;4868664;29;20330;-71
2022/05/15 11:58:51;;;;;;;;;;;;;;;25.50;100.00;98579.41;4868251;29;19954;-71
2022/05/15 12:01:24;;;;;;;;;;;;;;;25.62;100.00;98578.31;4867307;29;20372;-71
2022/05/15 12:03:53;;;;;;;;;;;;;;;25.61;100.00;98578.81;4864993;29;19968;-71
2022/05/15 12:06:23;;;;;;;;;;;;;;;25.62;100.00;98566.06;4868325;29;19954;-71
2022/05/15 12:09:10;;;;;;;;;;;;;;;25.70;100.00;98564.41;4868200;29;19956;-72
2022/05/15 12:11:37;;;;;;;;;;;;;;;25.79;100.00;98562.22;4867794;29;19948;-71
2022/05/15 12:14:22;;;;;;;;;;;;;;;25.93;100.00;98564.28;4867960;29;19960;-71
2022/05/15 12:16:51;;;;;;;;;;;;;;;25.55;100.00;98555.03;4851810;29;19943;-71
2022/05/15 12:19:32;;;;;;;;;;;;;;;25.57;100.00;98555.31;4867779;29;19951;-71
2022/05/15 12:22:08;;;;;;;;;;;;;;;25.67;100.00;98542.47;4868060;29;19953;-71
2022/05/15 12:24:37;;;;;;;;;;;;;;;25.64;100.00;98544.25;4848999;29;19987;-72
2022/05/15 12:27:19;;;;;;;;;;;;;;;25.57;100.00;98547.50;4864052;29;19956;-71
2022/05/15 12:29:59;;;;;;;;;;;;;;;25.58;100.00;98542.59;4867927;29;20306;-71
2022/05/15 12:32:41;;;;;;;;;;;;;;;25.65;100.00;98540.09;4867812;29;19950;-71
2022/05/15 12:35:12;;;;;;;;;;;;;;;25.65;100.00;98536.47;4868503;29;19951;-71
2022/05/15 12:38:05;;;;;;;;;;;;;;;25.66;100.00;98535.16;4868168;29;19953;-71
2022/05/15 12:40:35;;;;;;;;;;;;;;;25.67;100.00;98539.59;4864537;29;19953;-71
2022/05/15 12:43:16;;;;;;;;;;;;;;;25.77;100.00;98529.63;4867662;29;20241;-71
2022/05/15 12:45:44;;;;;;;;;;;;;;;25.76;100.00;98537.44;4859877;29;19950;-71
2022/05/15 12:48:12;;;;;;;;;;;;;;;25.78;100.00;98537.72;4867662;29;19978;-70
2022/05/15 12:50:50;;;;;;;;;;;;;;;25.85;100.00;98537.31;4867313;29;19979;-71
2022/05/15 12:53:19;;;;;;;;;;;;;;;25.98;100.00;98540.66;4867354;29;19967;-71
2022/05/15 12:55:46;;;;;;;;;;;;;;;25.90;100.00;98527.22;4867593;29;19953;-71
2022/05/15 12:58:13;;;;;;;;;;;;;;;25.97;100.00;98527.63;4867197;29;19948;-71
2022/05/15 13:00:42;;;;;;;;;;;;;;;25.87;100.00;98528.25;4867081;29;19951;-72
2022/05/15 13:03:10;;;;;;;;;;;;;;;25.88;100.00;98522.00;4867093;29;20235;-70
2022/05/15 13:05:49;;;;;;;;;;;;;;;25.73;100.00;98521.22;4861026;29;20271;-71
2022/05/15 13:08:16;;;;;;;;;;;;;;;25.74;100.00;98528.53;4867577;29;19951;-71
2022/05/15 13:10:51;;;;;;;;;;;;;;;25.94;100.00;98524.97;4868196;29;19970;-71
2022/05/15 13:13:45;;;;;;;;;;;;;;;26.00;100.00;98528.69;4866964;29;19950;-71
2022/05/15 13:16:17;;;;;;;;;;;;;;;25.75;100.00;98523.63;4864598;29;19953;-71
2022/05/15 13:18:46;;;;;;;;;;;;;;;25.56;100.00;98519.34;4867288;29;19964;-71
2022/05/15 13:21:19;;;;;;;;;;;;;;;25.71;100.00;98514.41;4867333;29;19959;-71
2022/05/15 13:23:47;;;;;;;;;;;;;;;25.73;100.00;98514.69;4865922;29;19972;-71
2022/05/15 13:26:21;;;;;;;;;;;;;;;25.55;100.00;98517.78;4866994;29;20217;-71
2022/05/15 13:28:48;;;;;;;;;;;;;;;25.62;100.00;98520.25;4866446;29;19957;-71
2022/05/15 13:31:16;;;;;;;;;;;;;;;25.56;100.00;98525.06;4866046;29;19983;-71
2022/05/15 13:33:44;;;;;;;;;;;;;;;25.55;100.00;98512.84;4866272;29;19986;-71
2022/05/15 13:36:13;;;;;;;;;;;;;;;25.37;100.00;98516.66;4866629;29;19957;-71
2022/05/15 13:44:16;;;;;;;;;;;;;;;25.28;100.00;98496.72;4866257;29;19958;-71
2022/05/15 13:47:03;;;;;;;;;;;;;;;25.28;100.00;98508.19;4865952;29;19958;-71
2022/05/15 13:49:39;;;;;;;;;;;;;;;25.29;100.00;98501.16;4866669;29;19949;-70
2022/05/15 13:52:19;;;;;;;;;;;;;;;25.39;100.00;98493.25;4866105;29;20317;-71
2022/05/15 13:54:46;;;;;;;;;;;;;;;25.39;100.00;98493.25;4865583;29;19953;-71
2022/05/15 13:57:14;;;;;;;;;;;;;;;25.25;100.00;98497.69;4866619;29;20361;-71
2022/05/15 13:59:43;;;;;;;;;;;;;;;25.18;100.00;98495.22;4866116;29;19955;-71
2022/05/15 14:02:15;;;;;;;;;;;;;;;25.18;100.00;98500.97;4866057;29;20330;-71
2022/05/15 14:04:45;;;;;;;;;;;;;;;25.23;100.00;98491.69;4866425;29;19950;-71
2022/05/15 14:07:27;;;;;;;;;;;;;;;25.12;100.00;98488.59;4861207;29;19955;-71
2022/05/15 14:09:55;;;;;;;;;;;;;;;25.12;100.00;98488.59;4845598;29;19973;-71
2022/05/15 14:12:41;;;;;;;;;;;;;;;25.05;100.00;98493.91;4846841;29;19960;-71
2022/05/15 14:15:20;;;;;;;;;;;;;;;25.08;100.00;98484.34;4847362;29;19952;-71
2022/05/15 14:17:49;;;;;;;;;;;;;;;25.03;100.00;98485.84;4847082;29;19957;-71
2022/05/15 14:20:31;;;;;;;;;;;;;;;24.99;100.00;98482.34;4847688;29;19962;-71
2022/05/15 14:22:58;;;;;;;;;;;;;;;24.89;100.00;98480.88;4847413;29;20242;-71
2022/05/15 14:25:26;;;;;;;;;;;;;;;24.96;100.00;98471.91;4847571;29;19967;-71
2022/05/15 14:27:54;;;;;;;;;;;;;;;24.91;100.00;98481.19;4847499;29;19948;-71
2022/05/15 14:30:21;;;;;;;;;;;;;;;24.94;100.00;98480.19;4846705;29;19973;-71
2022/05/15 14:32:50;;;;;;;;;;;;;;;24.93;100.00;98483.53;4847192;29;19952;-71
2022/05/15 14:35:20;;;;;;;;;;;;;;;24.84;100.00;98477.91;4847818;29;19949;-71
2022/05/15 14:37:47;;;;;;;;;;;;;;;24.91;100.00;98480.38;4854474;29;19954;-71
2022/05/15 14:40:14;;;;;;;;;;;;;;;24.84;100.00;98480.75;4865350;29;19959;-71
2022/05/15 14:42:42;;;;;;;;;;;;;;;24.83;100.00;98479.16;4865151;29;19953;-71
2022/05/15 14:45:11;;;;;;;;;;;;;;;24.89;100.00;98488.66;4865623;29;20018;-71
2022/05/15 14:47:38;;;;;;;;;;;;;;;24.91;100.00;98484.03;4865422;29;19955;-71
2022/05/15 14:50:06;;;;;;;;;;;;;;;24.85;100.00;98477.41;4864069;29;20536;-71
2022/05/15 14:52:33;;;;;;;;;;;;;;;24.87;100.00;98479.78;4865251;29;19946;-72
2022/05/15 14:55:03;;;;;;;;;;;;;;;24.87;100.00;98482.66;4849288;29;20268;-72
2022/05/15 14:57:31;;;;;;;;;;;;;;;24.93;100.00;98478.59;4865880;29;19950;-71
2022/05/15 15:00:00;;;;;;;;;;;;;;;24.86;100.00;98476.13;4865503;29;19954;-71
2022/05/15 15:02:28;;;;;;;;;;;;;;;24.82;100.00;98480.47;4865230;29;19959;-71
2022/05/15 15:04:56;;;;;;;;;;;;;;;24.87;100.00;98474.06;4864623;29;19959;-71
2022/05/15 15:07:24;;;;;;;;;;;;;;;24.76;100.00;98477.47;4865506;29;19942;-71
2022/05/15 15:09:51;;;;;;;;;;;;;;;24.86;100.00;98483.91;4864624;29;19974;-71
2022/05/15 15:12:19;;;;;;;;;;;;;;;24.73;100.00;98484.94;4865540;29;19952;-71
2022/05/15 15:14:47;;;;;;;;;;;;;;;24.77;100.00;98476.22;4865790;29;20247;-71
2022/05/15 15:17:15;;;;;;;;;;;;;;;24.79;100.00;98477.31;4864852;29;19955;-71
2022/05/15 15:19:42;;;;;;;;;;;;;;;24.76;100.00;98483.19;4865120;29;20254;-71
2022/05/15 15:22:09;;;;;;;;;;;;;;;24.77;100.00;98476.22;4864995;29;19980;-71
2022/05/15 15:24:37;;;;;;;;;;;;;;;24.75;100.00;98479.53;4864962;29;19985;-71
2022/05/15 15:27:05;;;;;;;;;;;;;;;24.69;100.00;98484.34;4864648;29;19957;-71
2022/05/15 15:29:32;;;;;;;;;;;;;;;24.69;100.00;98477.84;4864804;29;20211;-71
2022/05/15 15:32:00;;;;;;;;;;;;;;;24.61;100.00;98480.28;4864247;29;19994;-71
2022/05/15 15:34:27;;;;;;;;;;;;;;;24.61;100.00;98479.47;4864961;29;19967;-71
2022/05/15 15:39:40;;;;;;;;;;;;;;;24.58;100.00;98480.44;4864964;29;19958;-71
2022/05/15 15:42:08;;;;;;;;;;;;;;;24.55;100.00;98475.72;4865116;29;19959;-71
2022/05/15 15:44:36;;;;;;;;;;;;;;;24.56;100.00;98472.38;4864601;29;20329;-71
2022/05/15 15:47:04;;;;;;;;;;;;;;;24.55;100.00;98467.91;4863374;29;19950;-71
2022/05/15 15:49:32;;;;;;;;;;;;;;;24.51;100.00;98463.66;4864097;29;20231;-71
2022/05/15 15:51:59;;;;;;;;;;;;;;;24.51;100.00;98463.66;4849264;29;19978;-70
2022/05/15 15:54:26;;;;;;;;;;;;;;;24.49;100.00;98472.75;4865045;29;19951;-70
2022/05/15 15:56:56;;;;;;;;;;;;;;;24.49;100.00;98463.38;4864595;29;19958;-70
2022/05/15 15:59:25;;;;;;;;;;;;;;;24.47;100.00;98465.94;4864591;29;19983;-71
2022/05/15 16:01:53;;;;;;;;;;;;;;;24.49;100.00;98460.50;4864097;29;19951;-71
2022/05/15 16:04:20;;;;;;;;;;;;;;;24.48;100.00;98471.16;4865226;29;19952;-71
2022/05/15 16:06:47;;;;;;;;;;;;;;;24.45;100.00;98466.44;4864259;29;20237;-70
2022/05/15 16:09:14;;;;;;;;;;;;;;;24.43;100.00;98462.47;4864523;29;19961;-71
2022/05/15 16:11:45;;;;;;;;;;;;;;;24.40;100.00;98464.25;4846612;29;19965;-72
2022/05/15 16:14:17;;;;;;;;;;;;;;;24.40;100.00;98464.25;4846651;29;19946;-71
2022/05/15 16:16:46;;;;;;;;;;;;;;;24.47;100.00;98460.22;4849241;29;19960;-71
2022/05/15 16:19:13;;;;;;;;;;;;;;;24.46;100.00;98458.63;4845501;29;19952;-71
2022/05/15 16:21:47;;;;;;;;;;;;;;;24.48;100.00;98462.56;4867238;29;19960;-71
2022/05/15 16:24:17;;;;;;;;;;;;;;;24.54;100.00;98462.69;4867195;29;19968;-71
2022/05/15 16:26:45;;;;;;;;;;;;;;;24.48;100.00;98462.56;4867740;29;19950;-71
2022/05/15 16:29:14;;;;;;;;;;;;;;;24.52;100.00;98457.47;4867253;29;19956;-71
2022/05/15 16:31:42;;;;;;;;;;;;;;;24.54;100.00;98454.91;4864548;29;19975;-71
2022/05/15 16:34:10;;;;;;;;;;;;;;;24.57;100.00;98458.88;4868599;29;19953;-71
2022/05/15 16:36:37;;;;;;;;;;;;;;;24.53;100.00;98459.03;4867318;29;19960;-71
2022/05/15 16:39:05;;;;;;;;;;;;;;;24.60;100.00;98458.66;4858900;29;20273;-71
2022/05/15 16:41:32;;;;;;;;;;;;;;;24.62;100.00;98458.19;4862091;29;19954;-71
2022/05/15 16:43:59;;;;;;;;;;;;;;;24.57;100.00;98450.28;4855563;29;19945;-71
2022/05/15 16:46:28;;;;;;;;;;;;;;;24.55;100.00;98452.84;4863512;29;19962;-70
2022/05/15 16:48:55;;;;;;;;;;;;;;;24.50;100.00;98460.00;4867724;29;19950;-71
2022/05/15 16:51:22;;;;;;;;;;;;;;;24.50;100.00;98462.88;4866894;29;19965;-71
2022/05/15 16:53:49;;;;;;;;;;;;;;;24.50;100.00;98457.16;4851981;29;19958;-71
2022/05/15 16:56:17;;;;;;;;;;;;;;;24.59;100.00;98464.88;4853309;29;20337;-70
2022/05/15 16:58:44;;;;;;;;;;;;;;;24.56;100.00;98458.06;4857188;29;20245;-71
2022/05/15 17:01:11;;;;;;;;;;;;;;;24.51;100.00;98455.09;4865489;29;19955;-70
2022/05/15 17:03:39;;;;;;;;;;;;;;;24.44;100.00;98455.47;4867079;29;19951;-70
2022/05/15 17:06:06;;;;;;;;;;;;;;;24.40;100.00;98466.31;4867179;29;19959;-70
2022/05/15 17:08:34;;;;;;;;;;;;;;;24.36;100.00;98468.53;4866690;29;19952;-70
2022/05/15 17:11:01;;;;;;;;;;;;;;;24.28;100.00;98461.63;4866707;29;19974;-70
2022/05/15 17:13:28;;;;;;;;;;;;;;;24.22;100.00;98463.56;4866520;29;20338;-69
2022/05/15 17:15:57;;;;;;;;;;;;;;;24.14;100.00;98452.50;4866517;29;19951;-70
2022/05/15 17:18:24;;;;;;;;;;;;;;;24.09;100.00;98456.00;4866621;29;19957;-70
2022/05/15 17:20:55;;;;;;;;;;;;;;;24.06;100.00;98459.03;4866782;29;19960;-70
2022/05/15 17:23:23;;;;;;;;;;;;;;;24.05;100.00;98457.44;4864343;29;19952;-69
2022/05/15 17:25:50;;;;;;;;;;;;;;;23.90;100.00;98459.44;4865556;29;20365;-69
2022/05/15 17:34:12;;;;;;;;;;;;;;;23.80;100.00;98461.53;4864306;29;19950;-69
2022/05/15 17:36:21;;;;;;;;;;;;;;;23.44;100.00;98468.19;4862066;29;19977;-69
2022/05/15 17:38:48;;;;;;;;;;;;;;;23.31;100.00;98469.63;4866347;29;19952;-68
2022/05/15 17:41:16;;;;;;;;;;;;;;;23.21;100.00;98468.03;4865637;29;19955;-70
2022/05/15 17:43:43;;;;;;;;;;;;;;;23.13;100.00;98470.47;4866420;29;20363;-71
2022/05/15 17:46:10;;;;;;;;;;;;;;;23.05;100.00;98477.75;4866227;29;19962;-71
2022/05/15 17:48:38;;;;;;;;;;;;;;;22.99;100.00;98478.84;4866500;29;19951;-73
2022/05/15 17:51:05;;;;;;;;;;;;;;;22.90;100.00;98476.81;4865837;29;19952;-73
2022/05/15 17:53:32;;;;;;;;;;;;;;;22.83;100.00;98480.00;4866395;29;20223;-71
2022/05/15 17:56:00;;;;;;;;;;;;;;;22.79;100.00;98483.00;4865388;29;19956;-71
2022/05/15 17:58:29;;;;;;;;;;;;;;;22.71;100.00;98498.06;4862740;29;19951;-70
2022/05/15 18:00:56;;;;;;;;;;;;;;;22.62;100.00;98498.06;4861071;29;19955;-70
2022/05/15 18:03:23;;;;;;;;;;;;;;;22.56;100.00;98494.22;4865287;29;19954;-71
2022/05/15 18:05:51;;;;;;;;;;;;;;;22.51;100.00;98497.69;4865901;29;20247;-72
2022/05/15 18:08:18;;;;;;;;;;;;;;;22.44;100.00;98500.84;4865598;29;19951;-73
2022/05/15 18:10:45;;;;;;;;;;;;;;;22.32;100.00;98498.94;4865616;29;19955;-70
2022/05/15 18:13:12;;;;;;;;;;;;;;;22.23;100.00;98503.34;4865193;29;20385;-70
2022/05/15 18:15:40;;;;;;;;;;;;;;;22.18;100.00;98503.16;4865677;29;19959;-70
2022/05/15 18:18:08;;;;;;;;;;;;;;;22.04;100.00;98501.72;4865501;29;20331;-70
2022/05/15 18:20:36;;;;;;;;;;;;;;;22.00;100.00;98503.13;4865567;29;19953;-70
2022/05/15 18:23:04;;;;;;;;;;;;;;;21.96;100.00;98497.56;4865685;29;20243;-70
2022/05/15 18:25:33;;;;;;;;;;;;;;;21.92;100.00;98502.63;4865662;29;19974;-70
2022/05/15 18:31:17;;;;;;;;;;;;;;;21.81;100.00;98507.16;4889783;23;19977;-71
2022/05/15 18:33:45;;;;;;;;;;;;;;;21.77;100.00;98509.31;4873070;29;20238;-71
2022/05/15 18:36:12;;;;;;;;;;;;;;;21.75;100.00;98500.47;4881190;29;19958;-71
2022/05/15 18:38:42;;;;;;;;;;;;;;;21.68;100.00;98501.56;4878235;29;19952;-73
2022/05/15 18:41:10;;;;;;;;;;;;;;;21.68;100.00;98497.91;4879285;29;19948;-71
2022/05/15 18:43:39;;;;;;;;;;;;;;;21.59;100.00;98505.13;4875051;29;19954;-71
2022/05/15 18:46:06;;;;;;;;;;;;;;;21.56;100.00;98508.13;4876067;29;19952;-72
2022/05/15 18:48:34;;;;;;;;;;;;;;;21.52;100.00;98511.09;4877542;29;20364;-72
2022/05/15 18:56:33;;;;;;;;;;;;;;;21.41;100.00;98507.09;4885524;29;20338;-72
2022/05/15 18:59:00;;;;;;;;;;;;;;;21.35;100.00;98512.59;4878088;29;20235;-72
2022/05/15 19:01:27;;;;;;;;;;;;;;;21.26;100.00;98521.09;4880054;29;19953;-72